Time;durP1;ratioP1;P1;durP2;ratioP2;P2;SDS_P1;SDS_P2;PMS_P1;PMS_P2;Temp;Humidity;BMP_temperature;BMP_pressure;BME280_temperature;BME280_humidity;BME280_pressure;Samples;Min_cycle;Max_cycle;Signal;HPM_P1;HPM_P2
2021/03/26 00:01:07;;;;;;;12.98;7.50;;;9.00;82.50;;;;;;5016418;28;20033;-82
2021/03/26 00:03:36;;;;;;;12.73;8.95;;;9.00;82.70;;;;;;5034479;28;20030;-81
2021/03/26 00:06:10;;;;;;;13.57;9.18;;;8.90;82.70;;;;;;5016431;28;20022;-87
2021/03/26 00:08:36;;;;;;;15.50;9.38;;;8.90;82.70;;;;;;5016468;28;20024;-80
2021/03/26 00:11:03;;;;;;;13.88;9.35;;;8.90;83.00;;;;;;5016521;28;20100;-87
2021/03/26 00:13:29;;;;;;;14.77;8.68;;;8.90;83.40;;;;;;5034242;28;20032;-82
2021/03/26 00:15:55;;;;;;;14.00;9.82;;;8.90;83.60;;;;;;5033958;28;20042;-80
2021/03/26 00:18:21;;;;;;;13.50;9.13;;;8.90;83.70;;;;;;5015388;28;20041;-80
2021/03/26 00:20:46;;;;;;;14.77;9.20;;;8.90;83.70;;;;;;5000050;28;20482;-82
2021/03/26 00:23:12;;;;;;;14.00;9.65;;;8.90;83.80;;;;;;5016278;28;20083;-81
2021/03/26 00:25:37;;;;;;;15.77;10.07;;;8.90;84.10;;;;;;5000440;28;20497;-80
2021/03/26 00:28:05;;;;;;;14.15;10.02;;;8.80;84.00;;;;;;5017919;28;20406;-93
2021/03/26 00:30:31;;;;;;;16.30;9.85;;;8.80;84.20;;;;;;5019836;28;20029;-81
2021/03/26 00:32:57;;;;;;;15.52;10.38;;;8.80;84.20;;;;;;5030285;28;20025;-82
2021/03/26 00:35:24;;;;;;;15.75;10.68;;;8.80;84.20;;;;;;5057287;28;20037;-88
2021/03/26 00:37:49;;;;;;;17.75;10.75;;;8.80;84.40;;;;;;5046275;28;20188;-81
2021/03/26 00:40:18;;;;;;;18.00;11.68;;;8.70;84.40;;;;;;5019327;28;20061;-80
2021/03/26 00:42:44;;;;;;;23.63;15.60;;;8.70;84.50;;;;;;5052931;28;20013;-85
2021/03/26 00:45:12;;;;;;;29.42;18.33;;;8.70;85.70;;;;;;5054134;28;20022;-82
2021/03/26 00:47:38;;;;;;;30.15;19.88;;;8.60;88.00;;;;;;5049866;28;20021;-84
2021/03/26 00:50:31;;;;;;;30.23;20.75;;;8.40;89.20;;;;;;5025851;28;20382;-81
2021/03/26 00:53:03;;;;;;;29.20;19.70;;;8.30;89.80;;;;;;5033670;28;20029;-81
2021/03/26 00:55:28;;;;;;;30.42;19.55;;;8.30;90.00;;;;;;5034895;28;20056;-81
2021/03/26 00:57:54;;;;;;;28.50;20.45;;;8.20;90.10;;;;;;5022854;28;20498;-80
2021/03/26 01:00:23;;;;;;;26.00;16.88;;;8.20;90.40;;;;;;5015596;28;20021;-81
2021/03/26 01:02:49;;;;;;;28.45;17.55;;;8.20;90.30;;;;;;5033464;28;20136;-83
2021/03/26 01:05:20;;;;;;;23.65;16.30;;;8.20;90.40;;;;;;5000362;28;20025;-80
2021/03/26 01:07:47;;;;;;;29.38;17.25;;;8.20;90.40;;;;;;5031544;28;20128;-81
2021/03/26 01:10:16;;;;;;;27.73;18.83;;;8.20;90.30;;;;;;5027960;28;20112;-81
2021/03/26 01:12:41;;;;;;;23.42;15.55;;;8.20;90.60;;;;;;5035151;28;20029;-81
2021/03/26 01:15:10;;;;;;;26.25;17.05;;;8.20;90.30;;;;;;5021261;28;20033;-88
2021/03/26 01:17:35;;;;;;;29.38;19.00;;;8.20;90.50;;;;;;5039681;28;20445;-80
2021/03/26 01:20:01;;;;;;;32.00;20.50;;;8.20;90.60;;;;;;5014841;28;20088;-80
2021/03/26 01:22:27;;;;;;;29.48;19.40;;;8.20;90.80;;;;;;5015299;28;20379;-81
2021/03/26 01:24:53;;;;;;;27.65;18.13;;;8.10;91.10;;;;;;5017361;28;20509;-81
2021/03/26 01:27:18;;;;;;;29.67;20.00;;;8.10;91.20;;;;;;5031566;28;20057;-81
2021/03/26 01:29:44;;;;;;;32.17;20.80;;;8.10;91.50;;;;;;5014972;28;20096;-84
2021/03/26 01:32:10;;;;;;;28.67;18.42;;;8.10;91.80;;;;;;5014678;28;20418;-82
2021/03/26 01:34:35;;;;;;;31.30;20.08;;;8.00;91.70;;;;;;5014666;28;20535;-81
2021/03/26 01:37:01;;;;;;;29.55;19.20;;;8.00;91.90;;;;;;5031292;28;20030;-80
2021/03/26 01:39:27;;;;;;;29.35;19.50;;;8.00;91.80;;;;;;4998845;28;20479;-81
2021/03/26 01:41:52;;;;;;;25.83;16.77;;;8.00;92.00;;;;;;5014844;28;20075;-81
2021/03/26 01:44:22;;;;;;;23.15;14.88;;;8.00;91.70;;;;;;4998456;28;20473;-81
2021/03/26 01:46:49;;;;;;;23.83;15.95;;;8.00;91.60;;;;;;5031393;28;20065;-81
2021/03/26 01:49:14;;;;;;;22.95;14.82;;;8.10;91.50;;;;;;5014857;28;20024;-81
2021/03/26 01:51:49;;;;;;;23.42;14.48;;;8.20;91.40;;;;;;5014612;28;20543;-82
2021/03/26 01:54:18;;;;;;;20.88;13.48;;;8.20;91.30;;;;;;5004649;28;20029;-81
2021/03/26 01:56:44;;;;;;;28.33;16.95;;;8.20;91.50;;;;;;5038031;28;20393;-81
2021/03/26 01:59:11;;;;;;;28.33;17.85;;;8.20;91.50;;;;;;5006337;28;20037;-86
2021/03/26 02:01:44;;;;;;;27.95;18.05;;;8.20;91.60;;;;;;5031037;28;20539;-81
2021/03/26 02:04:24;;;;;;;25.00;16.85;;;8.20;92.00;;;;;;5001765;28;20026;-87
2021/03/26 02:06:52;;;;;;;30.33;18.67;;;8.20;91.90;;;;;;5032256;28;20044;-81
2021/03/26 02:09:23;;;;;;;32.13;20.98;;;8.10;92.30;;;;;;5028189;28;20025;-87
2021/03/26 02:11:54;;;;;;;38.65;22.50;;;8.10;92.60;;;;;;5032430;28;20365;-81
2021/03/26 02:14:31;;;;;;;38.17;23.17;;;7.90;93.30;;;;;;5031961;28;20051;-81
2021/03/26 02:16:57;;;;;;;37.58;23.42;;;7.90;93.60;;;;;;5045335;28;20474;-83
2021/03/26 02:19:31;;;;;;;40.53;23.25;;;7.80;94.00;;;;;;5014871;28;20442;-81
2021/03/26 02:21:57;;;;;;;38.08;24.45;;;7.70;94.40;;;;;;5014414;28;20421;-82
2021/03/26 02:24:25;;;;;;;34.20;22.52;;;7.70;94.60;;;;;;5022346;28;20037;-82
2021/03/26 02:26:53;;;;;;;36.88;21.58;;;7.70;94.70;;;;;;5034776;28;20074;-81
2021/03/26 02:29:24;;;;;;;32.53;21.02;;;7.70;94.50;;;;;;5041314;28;20026;-82
2021/03/26 02:31:53;;;;;;;42.67;23.30;;;7.70;94.30;;;;;;5017074;28;20033;-81
2021/03/26 02:34:20;;;;;;;31.73;20.65;;;7.70;94.30;;;;;;5020220;28;20022;-81
2021/03/26 02:36:51;;;;;;;38.03;22.98;;;7.70;94.20;;;;;;5015485;28;20033;-82
2021/03/26 02:39:26;;;;;;;37.55;23.38;;;7.70;94.20;;;;;;5043703;28;20048;-84
2021/03/26 02:41:56;;;;;;;31.23;20.15;;;7.70;94.10;;;;;;5033508;28;20025;-81
2021/03/26 02:44:52;;;;;;;33.20;20.13;;;7.70;94.00;;;;;;5023218;28;20021;-83
2021/03/26 02:47:34;;;;;;;31.85;19.45;;;7.70;93.90;;;;;;5018206;28;20033;-82
2021/03/26 02:50:15;;;;;;;28.52;16.63;;;7.70;93.80;;;;;;5027232;28;20485;-81
2021/03/26 02:52:57;;;;;;;29.23;19.45;;;7.80;93.60;;;;;;5008002;28;20037;-84
2021/03/26 02:55:36;;;;;;;27.65;17.88;;;7.80;93.50;;;;;;5028734;28;20029;-82
2021/03/26 02:58:10;;;;;;;26.95;16.15;;;7.80;93.50;;;;;;5022965;28;20037;-82
2021/03/26 03:00:40;;;;;;;26.02;17.40;;;7.80;93.40;;;;;;5035357;28;20401;-81
2021/03/26 03:03:08;;;;;;;27.67;17.88;;;7.80;93.30;;;;;;5042449;28;20028;-81
2021/03/26 03:05:38;;;;;;;26.13;17.08;;;7.90;93.30;;;;;;5039593;28;20083;-81
2021/03/26 03:08:27;;;;;;;31.63;19.65;;;7.90;93.20;;;;;;5020321;28;20119;-82
2021/03/26 03:10:57;;;;;;;26.55;17.55;;;8.00;93.20;;;;;;5017388;28;20075;-84
2021/03/26 03:13:46;;;;;;;34.92;20.55;;;7.90;93.10;;;;;;5042071;28;20024;-82
2021/03/26 03:16:30;;;;;;;29.38;19.52;;;8.00;93.30;;;;;;5021390;28;20053;-82
2021/03/26 03:19:05;;;;;;;27.73;17.95;;;8.00;93.30;;;;;;5033827;28;20080;-81
2021/03/26 03:21:41;;;;;;;32.88;21.13;;;8.00;93.30;;;;;;5054457;28;20112;-82
2021/03/26 03:24:21;;;;;;;34.28;21.20;;;8.00;93.50;;;;;;5040224;28;20384;-82
2021/03/26 03:26:57;;;;;;;37.72;24.33;;;8.00;93.50;;;;;;5055405;28;20017;-82
2021/03/26 03:29:31;;;;;;;32.80;20.85;;;8.00;93.90;;;;;;5020635;28;20466;-82
2021/03/26 03:32:29;;;;;;;42.17;25.95;;;8.00;93.60;;;;;;5030967;28;20051;-86
2021/03/26 03:35:07;;;;;;;50.83;28.83;;;8.00;94.50;;;;;;5019740;28;20474;-81
2021/03/26 03:37:38;;;;;;;46.90;29.75;;;7.90;95.00;;;;;;5050698;28;20026;-82
2021/03/26 03:40:11;;;;;;;42.97;27.55;;;8.00;95.20;;;;;;5036819;28;20059;-81
2021/03/26 03:42:45;;;;;;;54.70;31.02;;;7.90;95.20;;;;;;5036417;28;20481;-81
2021/03/26 03:45:41;;;;;;;51.17;29.95;;;7.90;95.60;;;;;;5035067;28;20104;-82
2021/03/26 03:48:17;;;;;;;51.67;30.20;;;7.90;95.80;;;;;;5025433;28;20037;-82
2021/03/26 03:51:05;;;;;;;57.72;31.90;;;8.00;96.10;;;;;;5028421;28;20072;-81
2021/03/26 03:53:44;;;;;;;48.33;29.88;;;7.90;96.40;;;;;;5016824;28;20367;-81
2021/03/26 03:56:23;;;;;;;50.45;29.13;;;8.00;96.60;;;;;;5035454;28;20033;-81
2021/03/26 03:59:03;;;;;;;48.75;30.23;;;8.00;96.30;;;;;;5037066;28;20040;-81
2021/03/26 04:01:45;;;;;;;47.03;29.17;;;8.00;96.40;;;;;;5053035;28;20052;-81
2021/03/26 04:04:25;;;;;;;50.42;30.83;;;8.00;96.40;;;;;;5039003;28;20017;-82
2021/03/26 04:07:02;;;;;;;48.85;28.95;;;8.00;96.80;;;;;;5041372;28;20103;-82
2021/03/26 04:09:36;;;;;;;52.92;28.80;;;8.00;96.50;;;;;;5021716;28;20021;-81
2021/03/26 04:12:24;;;;;;;49.47;28.60;;;8.00;96.50;;;;;;5048055;28;20059;-84
2021/03/26 04:15:06;;;;;;;49.10;28.35;;;8.10;96.50;;;;;;5046242;28;20028;-81
2021/03/26 04:17:39;;;;;;;41.63;26.70;;;8.10;96.40;;;;;;5050216;28;20028;-88
2021/03/26 04:20:15;;;;;;;49.17;28.77;;;8.20;96.40;;;;;;5076215;28;20021;-84
2021/03/26 04:22:50;;;;;;;45.30;26.88;;;8.10;96.40;;;;;;5048409;28;20065;-81
2021/03/26 04:25:26;;;;;;;47.55;27.88;;;8.20;96.40;;;;;;5036055;28;20036;-82
2021/03/26 04:28:05;;;;;;;43.47;26.77;;;8.20;96.40;;;;;;5053561;28;20017;-90
2021/03/26 04:30:51;;;;;;;42.88;27.05;;;8.20;96.30;;;;;;5051080;28;20386;-81
2021/03/26 04:33:18;;;;;;;45.92;26.92;;;8.20;96.40;;;;;;5034198;28;20072;-81
2021/03/26 04:35:46;;;;;;;47.10;26.90;;;8.20;96.40;;;;;;5046747;28;20578;-81
2021/03/26 04:38:31;;;;;;;45.38;26.33;;;8.20;96.40;;;;;;5016129;28;20018;-82
2021/03/26 04:41:01;;;;;;;45.33;26.88;;;8.20;96.30;;;;;;5016238;28;20028;-87
2021/03/26 04:43:33;;;;;;;41.30;27.25;;;8.20;96.30;;;;;;5045686;28;20064;-81
2021/03/26 04:46:06;;;;;;;42.38;27.58;;;8.30;96.40;;;;;;5034300;28;20155;-81
2021/03/26 04:48:53;;;;;;;39.97;26.75;;;8.20;96.40;;;;;;5019109;28;20033;-82
2021/03/26 04:51:37;;;;;;;43.20;26.17;;;8.20;96.30;;;;;;5032506;28;20480;-85
2021/03/26 04:54:40;;;;;;;44.28;26.85;;;8.30;96.30;;;;;;5033837;28;20083;-82
2021/03/26 04:57:11;;;;;;;46.67;28.08;;;8.30;96.20;;;;;;5020639;28;20029;-81
2021/03/26 04:59:47;;;;;;;45.30;27.00;;;8.30;96.20;;;;;;5015821;28;20022;-82
2021/03/26 05:02:15;;;;;;;38.90;26.40;;;8.30;96.20;;;;;;5020760;28;20026;-82
2021/03/26 05:04:43;;;;;;;42.15;24.30;;;8.30;96.10;;;;;;5015362;28;20029;-81
2021/03/26 05:07:22;;;;;;;39.20;24.15;;;8.30;96.00;;;;;;5015584;28;20022;-82
2021/03/26 05:09:52;;;;;;;41.20;25.40;;;8.30;95.90;;;;;;5031938;28;20025;-82
2021/03/26 05:12:25;;;;;;;36.47;23.33;;;8.30;95.80;;;;;;5015533;28;20051;-81
2021/03/26 05:15:08;;;;;;;41.85;25.50;;;8.30;95.80;;;;;;5033762;28;20025;-81
2021/03/26 05:17:41;;;;;;;42.35;24.92;;;8.30;95.80;;;;;;5032233;28;20033;-81
2021/03/26 05:20:22;;;;;;;37.50;22.10;;;8.40;95.80;;;;;;5026101;28;20087;-81
2021/03/26 05:23:32;;;;;;;35.90;23.27;;;8.40;95.70;;;;;;5003963;28;20025;-81
2021/03/26 05:26:00;;;;;;;39.08;23.85;;;8.40;95.60;;;;;;5013605;28;20026;-82
2021/03/26 05:28:42;;;;;;;40.38;24.55;;;8.40;95.60;;;;;;5032017;28;20025;-81
2021/03/26 05:31:31;;;;;;;37.40;24.40;;;8.40;95.50;;;;;;5032122;28;20087;-82
2021/03/26 05:34:04;;;;;;;39.95;24.42;;;8.40;95.40;;;;;;5033639;28;20026;-82
2021/03/26 05:36:36;;;;;;;38.53;24.08;;;8.40;95.30;;;;;;5033522;28;20149;-84
2021/03/26 05:39:12;;;;;;;37.15;23.58;;;8.40;95.40;;;;;;5015977;28;20132;-82
2021/03/26 05:41:58;;;;;;;40.47;26.42;;;8.30;95.40;;;;;;5043645;28;20061;-85
2021/03/26 05:45:02;;;;;;;38.08;23.63;;;8.40;95.40;;;;;;5031547;28;20032;-83
2021/03/26 05:47:52;;;;;;;37.97;23.70;;;8.40;95.40;;;;;;5033189;28;20052;-85
2021/03/26 05:50:39;;;;;;;39.78;23.45;;;8.40;95.30;;;;;;5022201;28;20022;-83
2021/03/26 05:53:25;;;;;;;40.30;24.15;;;8.40;95.30;;;;;;5032794;28;20032;-83
2021/03/26 05:56:21;;;;;;;39.80;24.17;;;8.40;95.20;;;;;;5015286;28;20064;-83
2021/03/26 05:59:29;;;;;;;40.75;24.13;;;8.40;95.10;;;;;;5020637;28;20040;-83
2021/03/26 06:02:23;;;;;;;37.05;23.73;;;8.40;95.10;;;;;;4995193;28;20037;-83
2021/03/26 06:05:06;;;;;;;42.53;25.75;;;8.40;95.10;;;;;;5032119;28;20086;-82
2021/03/26 06:07:53;;;;;;;38.88;23.42;;;8.40;95.00;;;;;;5014564;28;20025;-86
2021/03/26 06:10:37;;;;;;;41.00;25.15;;;8.50;95.10;;;;;;5014745;28;20477;-82
2021/03/26 06:13:27;;;;;;;41.85;24.58;;;8.40;95.00;;;;;;5030951;28;20087;-82
2021/03/26 06:16:31;;;;;;;42.17;25.42;;;8.50;95.10;;;;;;5031782;28;20030;-82
2021/03/26 06:19:24;;;;;;;43.47;25.65;;;8.40;95.00;;;;;;5013426;28;20041;-82
2021/03/26 06:22:27;;;;;;;42.45;25.83;;;8.40;95.10;;;;;;5032937;28;20053;-82
2021/03/26 06:25:16;;;;;;;39.38;24.67;;;8.40;95.20;;;;;;5029678;28;20112;-82
2021/03/26 06:27:54;;;;;;;42.22;24.15;;;8.40;95.10;;;;;;5021429;28;20021;-83
2021/03/26 06:30:22;;;;;;;43.22;24.65;;;8.50;95.10;;;;;;5032459;28;20022;-82
2021/03/26 06:33:25;;;;;;;45.83;26.58;;;8.50;95.00;;;;;;5033043;28;20034;-83
2021/03/26 06:36:09;;;;;;;43.75;27.20;;;8.50;95.10;;;;;;5024174;28;20034;-82
2021/03/26 06:39:02;;;;;;;41.72;23.73;;;8.50;95.10;;;;;;5014423;28;20529;-90
2021/03/26 06:42:01;;;;;;;38.08;23.38;;;8.50;95.00;;;;;;5032626;28;20026;-82
2021/03/26 06:44:54;;;;;;;44.38;26.35;;;8.50;94.90;;;;;;5030119;28;20025;-82
2021/03/26 06:47:59;;;;;;;43.00;24.42;;;8.50;94.80;;;;;;5032392;28;20068;-83
2021/03/26 06:50:49;;;;;;;47.80;26.38;;;8.60;94.80;;;;;;5031194;28;20045;-82
2021/03/26 06:53:38;;;;;;;42.90;26.45;;;8.60;94.70;;;;;;5025722;28;20022;-83
2021/03/26 06:56:32;;;;;;;46.28;27.13;;;8.60;94.70;;;;;;5034875;28;20119;-82
2021/03/26 06:59:00;;;;;;;41.90;26.33;;;8.60;95.00;;;;;;5034837;28;20029;-82
2021/03/26 07:01:37;;;;;;;39.17;24.90;;;8.70;94.60;;;;;;5036899;28;20025;-82
2021/03/26 07:04:30;;;;;;;44.63;27.10;;;8.70;94.60;;;;;;5041938;28;20535;-82
2021/03/26 07:07:05;;;;;;;43.63;25.50;;;8.70;94.50;;;;;;5020219;28;20401;-82
2021/03/26 07:09:47;;;;;;;45.33;25.75;;;8.80;94.40;;;;;;5015529;28;20116;-82
2021/03/26 07:12:18;;;;;;;41.95;25.90;;;8.80;94.50;;;;;;5015526;28;20051;-82
2021/03/26 07:15:05;;;;;;;41.50;26.92;;;8.80;94.40;;;;;;5015301;28;20029;-82
2021/03/26 07:17:45;;;;;;;43.67;26.85;;;8.80;94.30;;;;;;5015737;28;20030;-83
2021/03/26 07:20:18;;;;;;;41.78;25.30;;;8.90;94.30;;;;;;5030388;28;20401;-84
2021/03/26 07:23:21;;;;;;;43.92;27.23;;;8.90;94.40;;;;;;5014393;28;20081;-84
2021/03/26 07:26:05;;;;;;;40.22;25.80;;;8.90;94.40;;;;;;5028540;28;20478;-83
2021/03/26 07:29:28;;;;;;;43.47;26.92;;;8.90;94.30;;;;;;5036474;28;20663;-82
2021/03/26 07:32:18;;;;;;;42.28;25.45;;;8.90;94.30;;;;;;5036441;28;20033;-82
2021/03/26 07:34:53;;;;;;;41.00;26.17;;;8.90;94.20;;;;;;5019328;28;20025;-82
2021/03/26 07:37:30;;;;;;;43.95;26.85;;;8.90;94.20;;;;;;5035863;28;20040;-82
2021/03/26 07:40:16;;;;;;;43.42;25.40;;;9.00;94.50;;;;;;5049070;28;20481;-82
2021/03/26 07:43:04;;;;;;;39.78;25.50;;;9.00;94.30;;;;;;5018200;28;20033;-89
2021/03/26 07:45:48;;;;;;;44.67;26.52;;;9.10;94.30;;;;;;5035816;28;20037;-80
2021/03/26 07:48:36;;;;;;;39.03;24.98;;;9.20;94.20;;;;;;5038084;28;20033;-83
2021/03/26 07:51:12;;;;;;;43.65;26.30;;;9.20;94.20;;;;;;5036528;28;20457;-83
2021/03/26 07:53:55;;;;;;;43.20;26.65;;;9.20;94.00;;;;;;5050212;28;20036;-81
2021/03/26 07:56:33;;;;;;;44.05;27.77;;;9.30;94.20;;;;;;5020436;28;20053;-81
2021/03/26 07:59:34;;;;;;;42.08;26.58;;;9.40;94.00;;;;;;5039805;28;20421;-81
2021/03/26 08:02:37;;;;;;;38.93;25.80;;;9.50;94.00;;;;;;5052888;28;20086;-82
2021/03/26 08:05:06;;;;;;;39.53;24.73;;;9.60;93.50;;;;;;5048280;28;20044;-86
2021/03/26 08:07:53;;;;;;;38.00;24.15;;;9.70;93.50;;;;;;5036573;28;20048;-92
2021/03/26 08:10:56;;;;;;;41.35;24.83;;;9.80;93.20;;;;;;5038204;28;20035;-87
2021/03/26 08:13:36;;;;;;;41.00;25.65;;;9.80;92.90;;;;;;5051102;28;20049;-85
2021/03/26 08:16:08;;;;;;;38.83;23.65;;;9.80;92.70;;;;;;5043929;28;20057;-81
2021/03/26 08:18:41;;;;;;;37.88;24.33;;;9.90;92.40;;;;;;5018128;28;20029;-82
2021/03/26 08:21:24;;;;;;;40.45;24.05;;;10.00;92.60;;;;;;5031944;28;20025;-84
2021/03/26 08:24:00;;;;;;;36.03;22.70;;;10.00;92.70;;;;;;5033465;28;20021;-82
2021/03/26 08:26:46;;;;;;;35.10;23.35;;;10.10;92.40;;;;;;5034001;28;20041;-81
2021/03/26 08:29:31;;;;;;;36.05;23.58;;;10.20;92.10;;;;;;5018536;28;20017;-82
2021/03/26 08:32:32;;;;;;;34.08;21.65;;;10.30;92.30;;;;;;5024155;28;20529;-83
2021/03/26 08:35:32;;;;;;;30.60;21.13;;;10.40;91.20;;;;;;5031258;28;20477;-82
2021/03/26 08:38:36;;;;;;;28.95;20.15;;;10.50;90.90;;;;;;5034814;28;20342;-81
2021/03/26 08:41:26;;;;;;;34.92;21.17;;;10.60;91.30;;;;;;5020998;28;20068;-82
2021/03/26 08:43:55;;;;;;;31.23;19.52;;;10.70;90.50;;;;;;5036479;28;20044;-83
2021/03/26 08:46:26;;;;;;;33.38;20.23;;;10.90;90.20;;;;;;5035290;28;20092;-83
2021/03/26 08:48:56;;;;;;;;;;;11.00;90.00;;;;;;5017158;28;20025;-83
2021/03/26 08:51:59;;;;;;;30.20;18.60;;;11.00;89.70;;;;;;5039039;28;20007;-82
2021/03/26 08:55:03;;;;;;;24.77;17.30;;;11.20;89.20;;;;;;5028149;28;20209;-85
2021/03/26 08:57:48;;;;;;;27.30;17.88;;;11.30;88.10;;;;;;5003939;28;20465;-84
2021/03/26 09:00:40;;;;;;;28.35;17.95;;;11.40;87.10;;;;;;5032748;28;20478;-83
2021/03/26 09:03:42;;;;;;;28.52;17.92;;;11.40;86.40;;;;;;5030964;28;20531;-81
2021/03/26 09:06:39;;;;;;;31.33;17.35;;;11.50;87.10;;;;;;5036077;28;20057;-81
2021/03/26 09:09:50;;;;;;;25.00;17.23;;;11.70;85.10;;;;;;5016127;28;20052;-82
2021/03/26 09:12:34;;;;;;;28.40;16.97;;;11.80;87.30;;;;;;5021352;28;20492;-81
2021/03/26 09:15:34;;;;;;;24.95;16.63;;;11.90;84.70;;;;;;4998002;28;20034;-81
2021/03/26 09:18:29;;;;;;;24.38;16.50;;;12.00;83.40;;;;;;4997162;28;20438;-82
2021/03/26 09:21:08;;;;;;;25.45;16.83;;;12.10;82.60;;;;;;5015855;28;20110;-82
2021/03/26 09:24:06;;;;;;;22.52;15.00;;;12.20;82.50;;;;;;5028169;28;20037;-81
2021/03/26 09:26:56;;;;;;;24.15;14.45;;;12.30;81.90;;;;;;5035242;28;20041;-81
2021/03/26 09:29:53;;;;;;;20.27;14.85;;;12.40;80.90;;;;;;5041115;28;20029;-81
2021/03/26 09:32:26;;;;;;;22.23;13.95;;;12.60;81.10;;;;;;5013425;28;20061;-81
2021/03/26 09:35:15;;;;;;;22.30;15.02;;;12.60;79.00;;;;;;5031573;28;20025;-82
2021/03/26 09:37:51;;;;;;;22.35;14.65;;;12.70;80.50;;;;;;5015917;28;20355;-81
2021/03/26 09:40:31;;;;;;;29.90;17.58;;;12.80;78.90;;;;;;5015871;28;20036;-81
2021/03/26 09:43:15;;;;;;;22.00;15.00;;;12.90;79.70;;;;;;5015438;28;20425;-81
2021/03/26 09:45:43;;;;;;;23.15;15.30;;;12.90;79.30;;;;;;5018335;28;20128;-81
2021/03/26 09:51:53;;;;;;;20.00;13.30;;;13.10;80.10;;;;;;5022691;28;20048;-81
2021/03/26 09:54:34;;;;;;;20.80;13.43;;;13.20;78.60;;;;;;5027805;28;20037;-81
2021/03/26 09:57:21;;;;;;;19.58;11.55;;;13.30;75.70;;;;;;5016246;28;20028;-83
2021/03/26 10:00:08;;;;;;;19.05;11.45;;;13.40;74.60;;;;;;5028871;28;20390;-83
2021/03/26 10:02:55;;;;;;;16.52;11.15;;;13.60;73.80;;;;;;5034160;28;20536;-82
2021/03/26 10:05:38;;;;;;;17.48;10.25;;;13.70;73.40;;;;;;5031108;28;20024;-82
2021/03/26 10:11:17;;;;;;;15.80;8.88;;;13.90;75.40;;;;;;5033831;28;20056;-82
2021/03/26 10:24:59;;;;;;;21.20;9.38;;;14.10;70.50;;;;;;4856137;29;20106;-81
2021/03/26 10:32:17;;;;;;;13.88;6.88;;;14.10;70.60;;;;;;4934488;29;20071;-82
2021/03/26 10:34:45;;;;;;;15.52;7.10;;;14.20;71.70;;;;;;4952570;28;20081;-82
2021/03/26 10:53:57;;;;;;;9.25;4.30;;;14.30;69.50;;;;;;4987763;28;20068;-82
2021/03/26 11:00:00;;;;;;;10.18;4.32;;;14.50;66.30;;;;;;5031040;28;20083;-82
2021/03/26 11:15:54;;;;;;;9.68;3.28;;;14.80;65.30;;;;;;5036078;28;20600;-82
2021/03/26 11:18:28;;;;;;;11.52;4.10;;;14.80;63.10;;;;;;5018353;28;20465;-84
2021/03/26 11:21:16;;;;;;;7.85;3.60;;;14.80;62.20;;;;;;4996195;28;20089;-83
2021/03/26 11:24:00;;;;;;;11.13;3.80;;;14.70;62.00;;;;;;4980081;28;20034;-83
2021/03/26 11:26:36;;;;;;;7.85;3.22;;;14.70;60.70;;;;;;5003390;28;20590;-83
2021/03/26 11:32:28;;;;;;;10.15;3.17;;;14.60;61.60;;;;;;5036813;28;20036;-83
2021/03/26 11:35:02;;;;;;;7.90;3.17;;;14.70;60.50;;;;;;5035910;28;20060;-83
2021/03/26 11:37:48;;;;;;;8.27;3.17;;;14.70;61.60;;;;;;5035670;28;20056;-83
2021/03/26 11:40:40;;;;;;;8.55;3.28;;;14.70;61.80;;;;;;5035143;28;20033;-83
2021/03/26 11:43:20;;;;;;;8.13;3.35;;;14.80;61.70;;;;;;5049959;28;20049;-82
2021/03/26 11:45:55;;;;;;;5.32;3.00;;;14.90;60.70;;;;;;5058191;28;20025;-83
2021/03/26 11:48:44;;;;;;;8.02;2.90;;;15.00;62.30;;;;;;5043056;28;20020;-84
2021/03/26 11:54:48;;;;;;;8.98;2.65;;;15.00;59.90;;;;;;5059538;28;20071;-82
2021/03/26 12:01:04;;;;;;;12.05;3.60;;;15.00;59.30;;;;;;5057308;28;20128;-82
2021/03/26 12:07:29;;;;;;;9.95;2.92;;;15.10;60.80;;;;;;5036609;28;20158;-83
2021/03/26 12:10:11;;;;;;;6.75;2.70;;;15.20;61.40;;;;;;5018156;28;20109;-83
2021/03/26 12:12:56;;;;;;;7.40;2.65;;;15.30;58.10;;;;;;5018508;28;20389;-83
2021/03/26 12:15:27;;;;;;;6.60;2.90;;;15.30;58.40;;;;;;5016358;28;20462;-83
2021/03/26 12:18:24;;;;;;;6.82;3.17;;;15.40;57.70;;;;;;5018337;28;20025;-83
2021/03/26 12:21:01;;;;;;;12.25;2.80;;;15.40;57.30;;;;;;5035644;28;20500;-83
2021/03/26 12:23:53;;;;;;;8.43;3.25;;;15.40;58.30;;;;;;5019793;28;20025;-83
2021/03/26 12:26:40;;;;;;;7.93;2.40;;;15.40;58.20;;;;;;4990449;28;20038;-82
2021/03/26 12:29:18;;;;;;;8.30;2.88;;;15.60;56.90;;;;;;4998252;28;20029;-82
2021/03/26 12:32:02;;;;;;;12.98;3.28;;;15.60;56.10;;;;;;5015504;28;20028;-82
2021/03/26 12:34:50;;;;;;;9.60;3.40;;;15.60;56.20;;;;;;4999841;28;20049;-85
2021/03/26 12:37:27;;;;;;;7.47;3.10;;;15.60;55.50;;;;;;5035083;28;20033;-83
2021/03/26 12:40:16;;;;;;;7.15;3.00;;;15.60;57.30;;;;;;5017863;28;20017;-85
2021/03/26 12:42:46;;;;;;;7.15;3.08;;;15.70;55.70;;;;;;5016571;28;20029;-84
2021/03/26 12:45:24;;;;;;;10.63;3.20;;;15.70;55.30;;;;;;5034716;28;20014;-84
2021/03/26 12:48:01;;;;;;;11.00;2.70;;;15.70;57.10;;;;;;5034762;28;20123;-83
2021/03/26 12:50:45;;;;;;;10.07;3.00;;;15.80;57.30;;;;;;5015103;28;20075;-84
2021/03/26 12:53:35;;;;;;;9.45;3.40;;;15.90;55.40;;;;;;5013346;28;20091;-82
2021/03/26 12:56:29;;;;;;;9.32;3.42;;;15.90;55.00;;;;;;5024425;28;20037;-82
2021/03/26 12:59:12;;;;;;;7.60;3.40;;;16.00;56.40;;;;;;5029550;28;20117;-83
2021/03/26 13:01:50;;;;;;;13.23;3.53;;;16.10;54.50;;;;;;5014248;28;20049;-84
2021/03/26 13:04:54;;;;;;;8.63;3.60;;;16.10;55.40;;;;;;5014447;28;20390;-83
2021/03/26 13:07:29;;;;;;;10.13;3.75;;;16.10;56.30;;;;;;5004753;28;20496;-85
2021/03/26 13:10:24;;;;;;;6.57;3.83;;;16.20;55.60;;;;;;5028029;28;20018;-83
2021/03/26 13:12:52;;;;;;;8.50;3.63;;;16.30;55.30;;;;;;5012452;28;20034;-83
2021/03/26 13:15:28;;;;;;;12.10;3.92;;;16.40;54.60;;;;;;5015740;28;20065;-82
2021/03/26 13:18:09;;;;;;;8.45;3.70;;;16.60;54.10;;;;;;5019100;28;20118;-85
2021/03/26 13:21:11;;;;;;;9.27;3.92;;;16.60;53.60;;;;;;5011766;28;20424;-87
2021/03/26 13:23:41;;;;;;;10.50;4.45;;;16.60;53.30;;;;;;5003519;28;20037;-88
2021/03/26 13:26:15;;;;;;;9.48;4.57;;;16.70;54.10;;;;;;5031450;28;20102;-81
2021/03/26 13:29:05;;;;;;;8.65;3.50;;;16.60;53.60;;;;;;5012604;28;20068;-84
2021/03/26 13:31:37;;;;;;;8.38;3.72;;;16.70;52.90;;;;;;5032005;28;20417;-84
2021/03/26 13:34:02;;;;;;;11.10;4.18;;;16.70;53.60;;;;;;5026300;28;20064;-82
2021/03/26 13:36:28;;;;;;;9.27;3.90;;;16.70;54.70;;;;;;5017689;28;20397;-83
2021/03/26 13:38:56;;;;;;;8.07;3.95;;;16.70;53.40;;;;;;5014817;28;20386;-83
2021/03/26 13:41:59;;;;;;;6.97;3.70;;;16.50;52.70;;;;;;5030770;28;20462;-82
2021/03/26 13:44:36;;;;;;;10.10;3.70;;;16.40;53.40;;;;;;5031062;28;20108;-82
2021/03/26 13:47:25;;;;;;;10.27;3.72;;;16.30;52.30;;;;;;5022911;28;20036;-82
2021/03/26 13:50:12;;;;;;;9.70;4.13;;;16.10;52.90;;;;;;5005230;28;20493;-82
2021/03/26 13:52:44;;;;;;;9.43;3.30;;;15.90;53.10;;;;;;5014602;28;20021;-82
2021/03/26 13:55:31;;;;;;;9.20;3.28;;;15.70;54.00;;;;;;5032191;28;20025;-84
2021/03/26 13:58:07;;;;;;;8.75;3.28;;;15.70;53.40;;;;;;5014674;28;20022;-83
2021/03/26 14:00:56;;;;;;;11.55;3.90;;;15.70;53.70;;;;;;5028826;28;20017;-92
2021/03/26 14:06:51;;;;;;;6.50;2.30;;;15.80;52.90;;;;;;5028701;28;20036;-92
2021/03/26 14:09:37;;;;;;;5.72;2.30;;;15.80;52.00;;;;;;5021548;28;20177;-88
2021/03/26 14:12:24;;;;;;;10.23;2.22;;;15.70;52.30;;;;;;5017298;28;20030;-89
2021/03/26 14:15:11;;;;;;;6.72;2.30;;;15.60;52.10;;;;;;5015680;28;20083;-89
2021/03/26 14:18:14;;;;;;;;;;;;;;;;;;;;;
2021/03/26 14:21:05;;;;;;;6.03;1.92;;;15.60;53.90;;;;;;5034264;28;20033;-88
2021/03/26 14:23:41;;;;;;;8.15;2.13;;;15.80;52.50;;;;;;5013211;28;20375;-90
2021/03/26 14:26:33;;;;;;;;;;;;;;;;;;;;;
2021/03/26 14:29:50;;;;;;;4.07;2.00;;;16.30;52.50;;;;;;5013344;28;20041;-88
2021/03/26 14:32:54;;;;;;;6.10;2.10;;;16.60;51.90;;;;;;5007285;28;20517;-89
2021/03/26 14:35:28;;;;;;;6.22;2.20;;;16.80;50.70;;;;;;5020567;28;20030;-89
2021/03/26 14:38:07;;;;;;;4.95;1.98;;;17.00;50.80;;;;;;5012676;28;20033;-88
2021/03/26 14:40:47;;;;;;;6.18;1.90;;;16.90;49.20;;;;;;5015037;28;20025;-89
2021/03/26 14:43:24;;;;;;;9.30;2.22;;;16.80;49.70;;;;;;5027741;28;20026;-88
2021/03/26 14:46:13;;;;;;;4.63;2.08;;;16.60;50.00;;;;;;5011576;28;20025;-89
2021/03/26 14:48:48;;;;;;;9.30;2.10;;;16.40;51.80;;;;;;5024469;28;20076;-89
2021/03/26 14:51:30;;;;;;;7.45;2.08;;;16.40;51.30;;;;;;5031323;28;20032;-88
2021/03/26 14:54:41;;;;;;;5.72;1.80;;;16.50;51.20;;;;;;5031317;28;20075;-89
2021/03/26 14:57:50;;;;;;;3.50;1.50;;;16.60;50.70;;;;;;5016255;28;20362;-89
2021/03/26 15:03:50;;;;;;;5.55;1.90;;;16.60;49.30;;;;;;4997207;28;20545;-88